Time;durP1;ratioP1;P1;durP2;ratioP2;P2;SDS_P1;SDS_P2;PMS_P1;PMS_P2;Temp;Humidity;BMP_temperature;BMP_pressure;BME280_temperature;BME280_humidity;BME280_pressure;Samples;Min_cycle;Max_cycle;Signal;HPM_P1;HPM_P2
2022/04/29 00:01:06;;;;;;;6.82;4.45;;;;;;;11.92;65.79;101131.38;5094709;28;20048;-73
2022/04/29 00:03:34;;;;;;;7.18;4.32;;;;;;;11.85;66.03;101127.28;5095546;28;20044;-72
2022/04/29 00:06:03;;;;;;;7.63;4.43;;;;;;;11.88;65.97;101129.81;5094800;28;20409;-72
2022/04/29 00:08:31;;;;;;;7.05;4.40;;;;;;;11.77;66.85;101124.09;5093905;28;20485;-72
2022/04/29 00:10:59;;;;;;;7.40;4.45;;;;;;;11.70;67.50;101126.25;5095750;28;20130;-73
2022/04/29 00:13:28;;;;;;;8.13;4.22;;;;;;;11.69;67.46;101127.19;5094424;28;20101;-73
2022/04/29 00:15:57;;;;;;;7.10;4.35;;;;;;;11.63;67.86;101126.63;5093786;28;20219;-74
2022/04/29 00:18:28;;;;;;;8.30;4.63;;;;;;;11.51;68.60;101124.59;5094302;28;20048;-73
2022/04/29 00:20:56;;;;;;;7.35;4.60;;;;;;;11.43;69.16;101136.50;5095577;28;20046;-73
2022/04/29 00:23:24;;;;;;;7.53;4.35;;;;;;;11.50;68.62;101128.22;5095464;28;20040;-73
2022/04/29 00:25:52;;;;;;;10.35;4.60;;;;;;;11.39;69.86;101120.72;5095257;28;20433;-73
2022/04/29 00:28:20;;;;;;;8.15;4.75;;;;;;;11.26;70.52;101128.47;5095534;28;20044;-73
2022/04/29 00:30:49;;;;;;;6.68;4.50;;;;;;;11.19;70.65;101124.34;5095116;28;20047;-73
2022/04/29 00:33:18;;;;;;;7.78;4.90;;;;;;;11.29;69.42;101120.31;5095547;28;20134;-73
2022/04/29 00:35:46;;;;;;;6.80;4.43;;;;;;;11.22;70.38;101126.91;5095097;28;20054;-73
2022/04/29 00:38:17;;;;;;;9.18;4.65;;;;;;;11.24;70.09;101122.34;5095432;28;20071;-73
2022/04/29 00:40:45;;;;;;;7.95;4.70;;;;;;;11.10;71.18;101115.00;5095020;28;20047;-73
2022/04/29 00:43:13;;;;;;;9.85;5.05;;;;;;;10.99;72.05;101121.78;5094967;28;20043;-73
2022/04/29 00:45:42;;;;;;;8.68;4.55;;;;;;;10.93;72.72;101124.78;5094888;28;20071;-75
2022/04/29 00:48:10;;;;;;;10.32;4.82;;;;;;;10.83;73.42;101122.53;5095099;28;20105;-75
2022/04/29 00:50:40;;;;;;;8.65;5.43;;;;;;;10.70;74.62;101120.50;5094768;28;20079;-74
2022/04/29 00:53:11;;;;;;;7.32;4.60;;;;;;;10.84;73.51;101120.72;5094766;28;20040;-74
2022/04/29 00:55:40;;;;;;;8.63;5.05;;;;;;;10.67;74.60;101126.00;5094756;28;20059;-74
2022/04/29 00:58:17;;;;;;;9.38;5.05;;;;;;;10.73;74.21;101126.56;5093601;28;20401;-74
2022/04/29 01:00:45;;;;;;;9.48;4.95;;;;;;;10.84;73.21;101121.59;5094643;28;20040;-73
2022/04/29 01:03:15;;;;;;;7.18;4.85;;;;;;;10.72;73.50;101122.19;5093609;28;20048;-73
2022/04/29 01:05:45;;;;;;;9.88;5.22;;;;;;;10.67;73.84;101123.31;5094466;28;20048;-73
2022/04/29 01:08:13;;;;;;;9.13;4.63;;;;;;;10.54;75.05;101128.38;5094344;28;20109;-73
2022/04/29 01:10:42;;;;;;;8.73;5.28;;;;;;;10.52;75.41;101123.13;5094406;28;20047;-74
2022/04/29 01:13:10;;;;;;;7.53;4.93;;;;;;;10.38;76.15;101119.34;5094775;28;20123;-73
2022/04/29 01:15:39;;;;;;;8.85;4.75;;;;;;;10.47;76.22;101121.59;5094722;28;20051;-74
2022/04/29 01:18:09;;;;;;;7.72;4.97;;;;;;;10.64;74.49;101120.81;5094503;28;20052;-73
2022/04/29 01:20:39;;;;;;;8.65;4.93;;;;;;;10.56;74.22;101114.00;5092946;28;20063;-74
2022/04/29 01:23:11;;;;;;;8.98;5.25;;;;;;;10.50;74.89;101116.09;5094393;28;20046;-73
2022/04/29 01:25:39;;;;;;;10.27;5.32;;;;;;;10.57;73.69;101117.56;5094086;28;20050;-71
2022/04/29 01:28:08;;;;;;;8.45;5.30;;;;;;;10.53;74.48;101115.97;5094347;28;20043;-71
2022/04/29 01:30:39;;;;;;;10.45;5.10;;;;;;;10.60;74.88;101122.72;5093717;28;20097;-71
2022/04/29 01:33:08;;;;;;;9.93;5.43;;;;;;;10.46;75.16;101119.84;5094379;28;20043;-70
2022/04/29 01:35:36;;;;;;;10.63;5.18;;;;;;;10.43;75.11;101099.53;5093923;28;20447;-71
2022/04/29 01:38:04;;;;;;;7.40;4.68;;;;;;;10.55;74.76;101117.63;5093115;28;20052;-71
2022/04/29 01:40:34;;;;;;;8.65;5.40;;;;;;;10.57;74.53;101113.06;5094120;28;20047;-71
2022/04/29 01:43:02;;;;;;;11.18;5.28;;;;;;;10.52;74.80;101109.78;5094106;28;20044;-73
2022/04/29 01:45:31;;;;;;;9.35;5.18;;;;;;;10.52;76.62;101107.09;5094018;28;20068;-72
2022/04/29 01:47:59;;;;;;;10.82;5.30;;;;;;;10.53;75.41;101102.63;5093723;28;20127;-72
2022/04/29 01:50:28;;;;;;;8.20;5.07;;;;;;;10.55;74.37;101111.44;5092537;28;20075;-72
2022/04/29 01:52:56;;;;;;;7.82;4.70;;;;;;;10.70;72.32;101110.69;5093295;28;20412;-72
2022/04/29 01:55:24;;;;;;;8.52;5.13;;;;;;;10.69;72.64;101108.97;5093543;28;20107;-72
2022/04/29 01:57:57;;;;;;;10.90;5.25;;;;;;;10.61;73.44;101108.44;5093187;28;20044;-72
2022/04/29 02:00:26;;;;;;;7.10;4.72;;;;;;;10.63;73.29;101106.59;5093874;28;20397;-72
2022/04/29 02:02:55;;;;;;;11.30;4.95;;;;;;;10.70;72.87;101105.34;5091753;28;20413;-72
2022/04/29 02:05:24;;;;;;;7.80;4.90;;;;;;;10.71;73.12;101096.44;5092373;28;20130;-72
2022/04/29 02:07:52;;;;;;;8.25;4.82;;;;;;;10.47;74.62;101103.78;5093185;28;20077;-72
2022/04/29 02:10:21;;;;;;;8.38;4.75;;;;;;;10.60;73.52;101104.06;5093468;28;20051;-72
2022/04/29 02:12:49;;;;;;;6.70;4.80;;;;;;;10.28;75.31;101108.22;5093340;28;20127;-72
2022/04/29 02:15:20;;;;;;;9.27;5.20;;;;;;;10.52;74.20;101104.44;5093264;28;20044;-72
2022/04/29 02:17:48;;;;;;;10.05;4.70;;;;;;;10.61;74.00;101105.78;5093348;28;20073;-72
2022/04/29 02:20:16;;;;;;;8.00;4.70;;;;;;;10.58;74.25;101112.13;5093506;28;20036;-72
2022/04/29 02:22:45;;;;;;;9.23;5.60;;;;;;;10.40;75.03;101110.31;5093249;28;20044;-72
2022/04/29 02:25:13;;;;;;;7.43;4.93;;;;;;;10.60;73.20;101102.25;5093307;28;20143;-73
2022/04/29 02:27:41;;;;;;;10.30;5.05;;;;;;;10.50;73.01;101102.75;5093308;28;20046;-73
2022/04/29 02:30:11;;;;;;;8.93;4.72;;;;;;;10.59;71.88;101103.19;5093513;28;20032;-72
2022/04/29 02:32:41;;;;;;;10.52;5.20;;;;;;;10.57;71.79;101107.75;5093161;28;20040;-72
2022/04/29 02:35:09;;;;;;;10.07;5.25;;;;;;;10.64;70.79;101095.00;5093635;28;20046;-72
2022/04/29 02:37:38;;;;;;;9.10;5.10;;;;;;;10.59;71.07;101097.84;5093332;28;20040;-73
2022/04/29 02:40:07;;;;;;;8.35;5.05;;;;;;;10.68;71.17;101093.91;5093323;28;20405;-73
2022/04/29 02:42:36;;;;;;;7.40;5.00;;;;;;;10.75;70.80;101100.69;5093266;28;20040;-73
2022/04/29 02:45:05;;;;;;;9.55;5.53;;;;;;;10.62;71.73;101101.34;5093284;28;20445;-73
2022/04/29 02:47:35;;;;;;;7.72;5.35;;;;;;;10.45;73.49;101112.78;5093325;28;20044;-72
2022/04/29 02:50:06;;;;;;;8.60;5.55;;;;;;;10.58;74.77;101109.47;5093159;28;20050;-72
2022/04/29 02:52:34;;;;;;;8.63;5.60;;;;;;;10.61;72.12;101105.78;5093033;28;20044;-72
2022/04/29 02:55:03;;;;;;;7.28;5.00;;;;;;;10.42;73.31;101108.47;5092836;28;20044;-72
2022/04/29 02:57:31;;;;;;;8.85;5.13;;;;;;;10.40;74.23;101101.44;5093197;28;20051;-72
2022/04/29 02:59:59;;;;;;;9.75;5.75;;;;;;;10.40;74.69;101099.66;5093115;28;20525;-72
2022/04/29 03:02:28;;;;;;;8.10;5.20;;;;;;;10.36;74.49;101095.41;5092000;28;20055;-72
2022/04/29 03:04:56;;;;;;;8.43;5.60;;;;;;;10.12;75.95;101092.00;5092492;28;20040;-72
2022/04/29 03:07:26;;;;;;;12.63;6.10;;;;;;;10.20;76.12;101100.53;5093046;28;20484;-72
2022/04/29 03:09:54;;;;;;;11.60;6.07;;;;;;;10.04;76.48;101100.38;5091453;28;20048;-73
2022/04/29 03:12:23;;;;;;;8.82;5.53;;;;;;;10.02;76.60;101102.22;5092974;28;20032;-73
2022/04/29 03:14:51;;;;;;;9.60;5.50;;;;;;;10.06;76.06;101102.97;5094061;28;20496;-74
2022/04/29 03:20:19;;;;;;;11.90;6.00;;;;;;;10.32;73.27;101116.00;5054224;28;20426;-73
2022/04/29 03:22:51;;;;;;;10.40;4.80;;;;;;;10.30;72.92;101115.19;5037172;28;20056;-74
2022/04/29 03:25:19;;;;;;;7.47;4.68;;;;;;;10.31;70.98;101108.94;5074239;28;20052;-74
2022/04/29 03:27:47;;;;;;;7.57;4.72;;;;;;;10.54;69.51;101109.69;5096053;28;20101;-74
2022/04/29 03:30:16;;;;;;;10.73;5.65;;;;;;;10.56;69.34;101107.81;5096698;28;20119;-73
2022/04/29 03:32:51;;;;;;;10.25;4.78;;;;;;;10.54;70.22;101115.03;5096319;28;20032;-73
2022/04/29 03:35:19;;;;;;;8.48;4.75;;;;;;;10.56;69.48;101113.16;5096669;28;20397;-72
2022/04/29 03:37:51;;;;;;;8.55;5.15;;;;;;;10.60;68.85;101109.41;5095006;28;20093;-75
2022/04/29 03:40:21;;;;;;;9.40;5.18;;;;;;;10.52;70.90;101103.56;5096189;28;20050;-72
2022/04/29 03:42:50;;;;;;;8.32;4.72;;;;;;;10.71;70.33;101106.22;5096216;28;20436;-71
2022/04/29 03:45:20;;;;;;;10.38;5.22;;;;;;;10.50;71.26;101103.63;5096262;28;20127;-74
2022/04/29 03:47:48;;;;;;;10.80;5.47;;;;;;;10.33;71.95;101108.88;5096167;28;20048;-73
2022/04/29 03:50:17;;;;;;;11.10;5.25;;;;;;;10.36;72.36;101116.75;5095091;28;20050;-73
2022/04/29 03:52:47;;;;;;;8.35;5.50;;;;;;;10.39;72.13;101110.41;5096014;28;20067;-74
2022/04/29 03:55:19;;;;;;;7.93;5.10;;;;;;;10.56;71.07;101113.16;5094894;28;20477;-73
2022/04/29 03:57:47;;;;;;;10.38;5.40;;;;;;;10.62;71.10;101122.69;5094714;28;20048;-73
2022/04/29 04:00:16;;;;;;;11.80;5.18;;;;;;;10.73;70.03;101126.56;5095998;28;20040;-73
2022/04/29 04:02:45;;;;;;;8.55;4.90;;;;;;;10.76;70.03;101125.56;5095699;28;20036;-74
2022/04/29 04:05:14;;;;;;;10.18;5.43;;;;;;;10.87;69.37;101131.25;5095441;28;20044;-73
2022/04/29 04:07:42;;;;;;;8.13;5.13;;;;;;;11.04;68.73;101125.13;5095800;28;20052;-73
2022/04/29 04:10:11;;;;;;;9.75;5.57;;;;;;;11.19;68.20;101129.69;5094780;28;20044;-73
2022/04/29 04:12:43;;;;;;;9.68;5.28;;;;;;;11.70;66.05;101131.59;5094722;28;20102;-73
2022/04/29 04:15:12;;;;;;;8.90;5.45;;;;;;;11.88;65.11;101121.81;5095659;28;20055;-73
2022/04/29 04:17:41;;;;;;;11.52;5.18;;;;;;;12.19;63.15;101134.44;5094341;28;20056;-74
2022/04/29 04:20:11;;;;;;;11.82;5.75;;;;;;;12.63;61.77;101132.97;5094064;28;20151;-73
2022/04/29 04:22:39;;;;;;;9.32;4.82;;;;;;;13.18;60.09;101134.31;5094704;28;20048;-73
2022/04/29 04:25:10;;;;;;;8.35;5.28;;;;;;;13.53;59.34;101138.63;5093863;28;20075;-73
2022/04/29 04:27:39;;;;;;;10.73;5.43;;;;;;;13.88;57.54;101136.53;5094998;28;20040;-73
2022/04/29 04:30:10;;;;;;;9.35;5.38;;;;;;;14.21;56.59;101129.13;5093856;28;20043;-74
2022/04/29 04:32:40;;;;;;;9.32;5.35;;;;;;;14.28;56.42;101138.53;5095224;28;20040;-74
2022/04/29 04:35:08;;;;;;;8.95;5.40;;;;;;;14.31;56.12;101135.66;5093706;28;20489;-74
2022/04/29 04:37:37;;;;;;;9.60;5.28;;;;;;;14.25;55.63;101146.75;5095205;28;20050;-75
2022/04/29 04:40:06;;;;;;;9.73;5.40;;;;;;;14.45;55.42;101148.25;5093692;28;20071;-74
2022/04/29 04:42:44;;;;;;;10.35;5.22;;;;;;;14.54;54.27;101152.16;5095114;28;20048;-74
2022/04/29 04:45:14;;;;;;;11.13;4.97;;;;;;;14.14;55.79;101151.91;5095341;28;20385;-74
2022/04/29 04:47:42;;;;;;;9.38;5.38;;;;;;;14.21;56.26;101150.59;5095138;28;20139;-74
2022/04/29 04:50:11;;;;;;;11.45;5.78;;;;;;;13.23;58.28;101154.66;5094708;28;20067;-73
2022/04/29 04:52:43;;;;;;;11.60;5.65;;;;;;;13.12;59.48;101161.47;5093760;28;20091;-73
2022/04/29 04:55:12;;;;;;;9.85;5.18;;;;;;;13.32;59.54;101164.84;5094455;28;20054;-73
2022/04/29 04:57:41;;;;;;;11.70;5.55;;;;;;;13.34;59.49;101163.81;5094579;28;20063;-71
2022/04/29 05:00:10;;;;;;;15.07;5.32;;;;;;;13.48;59.37;101171.03;5093222;28;20051;-71
2022/04/29 05:02:41;;;;;;;10.45;5.45;;;;;;;13.46;59.34;101167.59;5093345;28;20048;-71
2022/04/29 05:05:10;;;;;;;9.00;5.32;;;;;;;13.39;60.07;101168.88;5093172;28;20075;-71
2022/04/29 05:07:40;;;;;;;10.55;5.57;;;;;;;13.46;58.82;101156.88;5094628;28;20093;-71
2022/04/29 05:10:09;;;;;;;13.02;5.75;;;;;;;13.85;58.69;101163.53;5094393;28;20074;-71
2022/04/29 05:12:41;;;;;;;11.70;5.32;;;;;;;13.90;57.67;101166.81;5094433;28;20078;-72
2022/04/29 05:15:12;;;;;;;10.13;5.25;;;;;;;13.95;57.58;101162.03;5092655;28;20063;-73
2022/04/29 05:17:41;;;;;;;10.93;5.97;;;;;;;13.83;57.52;101165.44;5093479;28;20055;-75
2022/04/29 05:20:11;;;;;;;9.48;5.47;;;;;;;14.37;56.82;101157.69;5092841;28;20048;-70
2022/04/29 05:22:40;;;;;;;10.80;5.72;;;;;;;14.80;54.21;101166.66;5093227;28;20048;-71
2022/04/29 05:25:10;;;;;;;10.43;5.57;;;;;;;15.01;53.61;101167.09;5093471;28;20066;-71
2022/04/29 05:27:38;;;;;;;8.52;5.32;;;;;;;15.48;51.14;101166.69;5092587;28;20067;-70
2022/04/29 05:30:08;;;;;;;10.13;5.13;;;;;;;15.91;49.78;101170.09;5092533;28;20040;-70
2022/04/29 05:32:38;;;;;;;9.85;5.68;;;;;;;15.94;49.53;101160.97;5092519;28;20443;-69
2022/04/29 05:35:10;;;;;;;12.05;5.20;;;;;;;16.75;47.57;101156.16;5092506;28;20109;-69
2022/04/29 05:37:40;;;;;;;9.52;6.18;;;;;;;16.79;46.90;101162.19;5092135;28;20097;-69
2022/04/29 05:42:55;;;;;;;10.25;5.18;;;;;;;17.91;43.03;101162.88;5093579;28;20040;-71
2022/04/29 05:45:23;;;;;;;11.52;5.82;;;;;;;18.09;43.01;101161.47;5092438;28;20052;-71
2022/04/29 05:47:51;;;;;;;9.10;5.07;;;;;;;18.23;43.14;101153.16;5093803;28;20044;-71
2022/04/29 05:50:21;;;;;;;9.35;5.15;;;;;;;18.45;42.12;101163.16;5093876;28;20043;-71
2022/04/29 05:52:49;;;;;;;9.35;4.75;;;;;;;18.23;42.48;101158.56;5092268;28;20047;-72
2022/04/29 05:55:17;;;;;;;11.68;5.28;;;;;;;18.41;42.26;101150.00;5105438;28;20123;-73
2022/04/29 05:58:06;;;;;;;11.40;5.20;;;;;;;18.83;39.70;101156.56;5095700;28;20051;-71
2022/04/29 06:00:35;;;;;;;10.77;4.75;;;;;;;18.68;39.12;101161.34;5113723;28;20089;-73
2022/04/29 06:03:04;;;;;;;12.38;5.30;;;;;;;18.88;39.40;101166.00;5113479;28;20193;-74
2022/04/29 06:05:36;;;;;;;7.45;4.32;;;;;;;18.62;37.87;101169.91;5095544;28;20044;-75
2022/04/29 06:08:05;;;;;;;9.38;5.00;;;;;;;18.21;39.03;101176.72;5113684;28;20544;-75
2022/04/29 06:10:33;;;;;;;9.73;4.43;;;;;;;18.11;38.07;101178.41;5113621;28;20136;-75
2022/04/29 06:13:01;;;;;;;7.72;4.40;;;;;;;18.90;37.51;101167.72;5095083;28;20078;-76
2022/04/29 06:15:30;;;;;;;6.07;4.28;;;;;;;19.61;36.38;101171.81;5092958;28;20090;-76
2022/04/29 06:17:58;;;;;;;9.18;4.00;;;;;;;20.02;35.41;101174.59;5095552;28;20055;-76
2022/04/29 06:20:27;;;;;;;7.07;4.60;;;;;;;19.75;35.83;101166.09;5096028;28;20134;-74
2022/04/29 06:22:56;;;;;;;7.65;3.63;;;;;;;19.65;35.97;101173.28;5113253;28;20100;-76
2022/04/29 06:25:25;;;;;;;7.00;4.03;;;;;;;19.53;34.47;101171.56;5093699;28;20055;-74
2022/04/29 06:27:53;;;;;;;7.72;4.40;;;;;;;19.82;34.24;101172.72;5075262;28;20390;-73
2022/04/29 06:30:21;;;;;;;9.13;4.25;;;;;;;19.86;35.66;101173.31;5093431;28;20036;-73
2022/04/29 06:33:09;;;;;;;7.10;4.20;;;;;;;19.35;36.05;101174.81;5074909;28;20459;-75
2022/04/29 06:35:41;;;;;;;6.28;4.15;;;;;;;18.57;36.99;101178.38;5093293;28;20118;-74
2022/04/29 06:38:11;;;;;;;8.15;4.70;;;;;;;19.65;36.10;101176.84;5074747;28;20093;-70
2022/04/29 06:40:39;;;;;;;8.63;4.00;;;;;;;20.27;34.69;101183.34;5075069;28;20481;-70
2022/04/29 06:43:07;;;;;;;7.70;4.03;;;;;;;20.08;34.60;101178.66;5093073;28;20036;-72
2022/04/29 06:45:35;;;;;;;6.68;4.32;;;;;;;19.93;34.72;101180.78;5074868;28;20062;-70
2022/04/29 06:48:04;;;;;;;8.25;4.22;;;;;;;19.86;35.30;101178.72;5074733;28;20554;-73
2022/04/29 06:50:32;;;;;;;7.85;4.43;;;;;;;19.45;35.27;101174.91;5095668;28;20047;-71
2022/04/29 06:53:01;;;;;;;8.63;4.68;;;;;;;19.56;36.30;101180.31;5078930;28;20408;-74
2022/04/29 06:55:31;;;;;;;7.45;3.90;;;;;;;19.30;36.85;101179.75;5097281;28;20071;-72
2022/04/29 06:57:59;;;;;;;7.38;3.83;;;;;;;17.94;38.22;101186.94;5097138;28;20040;-79
2022/04/29 07:00:27;;;;;;;7.35;4.00;;;;;;;17.66;39.51;101185.41;5078824;28;20481;-75
2022/04/29 07:02:57;;;;;;;10.13;3.90;;;;;;;17.83;39.08;101178.78;5078787;28;20052;-71
2022/04/29 07:05:25;;;;;;;5.88;3.70;;;;;;;17.73;38.95;101176.78;5096738;28;20109;-72
2022/04/29 07:07:54;;;;;;;8.93;3.78;;;;;;;17.33;40.18;101178.03;5079230;28;20143;-72
2022/04/29 07:10:22;;;;;;;6.50;3.42;;;;;;;17.00;39.90;101176.81;5112469;28;20104;-69
2022/04/29 07:12:52;;;;;;;6.28;3.65;;;;;;;17.16;39.80;101179.25;5099081;28;20082;-70
2022/04/29 07:15:21;;;;;;;8.00;4.10;;;;;;;17.55;39.81;101178.13;5098386;28;20401;-70
2022/04/29 07:17:49;;;;;;;6.68;3.53;;;;;;;17.45;39.07;101183.34;5098974;28;20467;-70
2022/04/29 07:20:18;;;;;;;6.07;3.53;;;;;;;17.26;39.43;101176.75;5098052;28;20075;-69
2022/04/29 07:22:46;;;;;;;5.10;2.95;;;;;;;17.13;39.50;101172.25;5117137;28;20070;-70
2022/04/29 07:25:15;;;;;;;8.40;3.65;;;;;;;17.07;40.02;101178.09;5116522;28;20067;-72
2022/04/29 07:27:44;;;;;;;5.25;3.60;;;;;;;17.12;40.27;101170.53;5098614;28;20075;-69
2022/04/29 07:30:14;;;;;;;6.32;3.55;;;;;;;16.99;39.86;101174.25;5098159;28;20055;-71
2022/04/29 07:32:42;;;;;;;5.80;3.63;;;;;;;16.96;39.96;101159.13;5079620;28;20135;-71
2022/04/29 07:43:28;;;;;;;7.07;3.30;;;;;;;16.97;38.75;101163.56;5096017;28;20044;-71
2022/04/29 07:45:59;;;;;;;4.82;3.00;;;;;;;17.08;39.16;101163.66;5078357;28;20059;-70
2022/04/29 07:48:27;;;;;;;5.95;3.35;;;;;;;17.13;39.56;101166.88;5078020;28;20135;-70
2022/04/29 07:50:55;;;;;;;5.28;2.85;;;;;;;16.69;38.46;101177.28;5096156;28;20040;-70
2022/04/29 07:53:23;;;;;;;5.65;3.30;;;;;;;16.83;39.56;101163.69;5095745;28;20044;-70
2022/04/29 07:55:52;;;;;;;5.55;3.28;;;;;;;16.88;39.46;101164.22;5077841;28;20052;-70
2022/04/29 07:58:20;;;;;;;6.97;3.50;;;;;;;16.98;39.90;101157.19;5095362;28;20546;-70
2022/04/29 08:00:50;;;;;;;8.02;3.33;;;;;;;17.19;39.71;101157.47;5076964;28;20123;-70
2022/04/29 08:03:37;;;;;;;7.47;3.60;;;;;;;16.94;40.06;101157.53;5077803;28;20059;-70
2022/04/29 08:06:07;;;;;;;6.03;3.40;;;;;;;16.92;39.16;101167.56;5095682;28;20055;-71
2022/04/29 08:08:37;;;;;;;4.95;2.90;;;;;;;16.82;38.04;101164.69;5077597;28;20055;-70
2022/04/29 08:11:06;;;;;;;6.50;3.38;;;;;;;17.07;38.25;101161.91;5095533;28;20396;-70
2022/04/29 08:13:36;;;;;;;6.10;3.10;;;;;;;17.03;38.74;101160.44;5077427;28;20052;-71
2022/04/29 08:16:24;;;;;;;6.15;3.30;;;;;;;17.25;39.06;101158.84;5076726;28;20102;-69
2022/04/29 08:18:55;;;;;;;5.00;3.05;;;;;;;17.29;37.72;101165.75;5077082;28;20048;-71
2022/04/29 08:21:23;;;;;;;4.78;2.95;;;;;;;17.21;37.22;101160.06;5077301;28;20075;-71
2022/04/29 08:23:51;;;;;;;7.78;3.60;;;;;;;17.20;37.74;101152.94;5077170;28;20059;-71
2022/04/29 08:26:19;;;;;;;5.60;3.15;;;;;;;17.13;36.61;101164.16;5095113;28;20071;-71
2022/04/29 08:28:48;;;;;;;5.65;3.30;;;;;;;17.16;36.84;101145.06;5077151;28;20097;-71
2022/04/29 08:31:21;;;;;;;5.45;3.05;;;;;;;17.27;37.60;101151.50;5095032;28;20039;-71
2022/04/29 08:33:49;;;;;;;5.88;3.25;;;;;;;17.30;37.68;101152.16;5076948;28;20052;-71
2022/04/29 08:36:19;;;;;;;6.45;3.20;;;;;;;17.52;37.46;101137.91;5094987;28;20044;-71
2022/04/29 08:38:48;;;;;;;7.22;2.90;;;;;;;17.43;38.54;101147.56;5076454;28;20060;-71
2022/04/29 08:41:20;;;;;;;4.70;3.10;;;;;;;17.38;36.94;101144.34;5076654;28;20472;-70
2022/04/29 08:43:49;;;;;;;6.07;3.55;;;;;;;17.56;36.40;101142.09;5076706;28;20431;-71
2022/04/29 08:46:21;;;;;;;5.57;2.80;;;;;;;17.53;36.28;101147.72;5076345;28;20060;-71
2022/04/29 08:48:50;;;;;;;5.03;3.10;;;;;;;17.65;36.07;101154.03;5094803;28;20048;-70
2022/04/29 08:51:21;;;;;;;4.85;3.28;;;;;;;17.63;36.73;101139.81;5076468;28;20058;-71
2022/04/29 08:53:49;;;;;;;4.50;3.15;;;;;;;17.68;37.29;101133.09;5076486;28;20071;-71
2022/04/29 08:59:04;;;;;;;6.35;3.03;;;;;;;17.79;36.03;101136.84;5075944;28;20051;-70
2022/04/29 09:01:32;;;;;;;5.22;3.15;;;;;;;17.77;35.29;101131.56;5076137;28;20152;-70
2022/04/29 09:04:01;;;;;;;4.32;2.83;;;;;;;17.74;35.98;101119.16;5076311;28;20052;-71
2022/04/29 09:06:31;;;;;;;6.00;3.30;;;;;;;18.01;36.25;101123.41;5093904;28;20071;-70
2022/04/29 09:09:08;;;;;;;5.20;2.88;;;;;;;17.95;34.96;101126.56;5075858;28;20048;-71
2022/04/29 09:11:37;;;;;;;5.03;2.80;;;;;;;18.05;34.37;101116.81;5094720;28;20078;-72
2022/04/29 09:14:19;;;;;;;5.45;3.03;;;;;;;18.09;33.87;101112.88;5075723;28;20135;-71
2022/04/29 09:16:49;;;;;;;5.22;3.08;;;;;;;18.12;34.88;101117.16;5060038;28;20056;-71
2022/04/29 09:19:31;;;;;;;4.18;2.90;;;;;;;18.12;36.00;101100.97;5076073;28;20127;-71
2022/04/29 09:22:07;;;;;;;5.85;2.95;;;;;;;18.23;33.87;101104.53;5094439;28;20048;-71
2022/04/29 09:24:36;;;;;;;4.72;2.80;;;;;;;18.28;32.70;101106.91;5076499;28;20404;-71
2022/04/29 09:27:05;;;;;;;5.07;2.78;;;;;;;18.28;32.53;101099.66;5094474;28;20576;-71
2022/04/29 09:29:41;;;;;;;5.63;2.83;;;;;;;18.37;33.02;101102.63;5075793;28;20048;-71
2022/04/29 09:32:11;;;;;;;5.03;2.85;;;;;;;18.44;32.58;101098.44;5093991;28;20090;-72
2022/04/29 09:34:48;;;;;;;5.32;2.92;;;;;;;18.38;30.83;101096.22;5076236;28;20048;-71
2022/04/29 09:37:20;;;;;;;5.15;3.10;;;;;;;18.28;32.45;101101.50;5075564;28;20048;-71
2022/04/29 09:39:55;;;;;;;5.40;3.15;;;;;;;18.50;32.95;101095.25;5093791;28;20044;-71
2022/04/29 09:42:24;;;;;;;5.63;2.90;;;;;;;18.66;33.90;101089.50;5093562;28;20051;-71
2022/04/29 09:44:52;;;;;;;6.00;2.72;;;;;;;18.78;31.93;101094.75;5093788;28;20051;-71
2022/04/29 09:47:22;;;;;;;5.07;2.88;;;;;;;18.80;31.22;101098.19;5075344;28;20070;-71
2022/04/29 09:49:55;;;;;;;6.28;2.85;;;;;;;18.67;31.66;101092.06;5093500;28;20484;-71
2022/04/29 09:52:26;;;;;;;6.40;3.17;;;;;;;18.92;31.55;101090.09;5075278;28;20105;-71
2022/04/29 09:54:55;;;;;;;5.88;3.30;;;;;;;19.09;32.62;101081.44;5075658;28;20048;-71
2022/04/29 09:57:24;;;;;;;5.13;2.88;;;;;;;19.09;31.51;101086.84;5093176;28;20044;-71
2022/04/29 09:59:57;;;;;;;5.88;3.00;;;;;;;19.08;29.31;101095.94;5075685;28;20058;-71
2022/04/29 10:02:27;;;;;;;4.70;2.97;;;;;;;19.02;29.70;101085.66;5093291;28;20113;-71
2022/04/29 10:04:56;;;;;;;5.78;3.00;;;;;;;19.12;30.25;101086.59;5075622;28;20048;-71
2022/04/29 10:07:27;;;;;;;4.97;2.97;;;;;;;18.77;31.61;101084.09;5075220;28;20488;-71
2022/04/29 10:09:56;;;;;;;5.10;2.90;;;;;;;18.66;32.30;101084.97;5074991;28;20079;-71
2022/04/29 10:12:26;;;;;;;5.53;2.92;;;;;;;18.63;32.25;101084.31;5092888;28;20067;-70
2022/04/29 10:14:59;;;;;;;5.22;3.20;;;;;;;18.75;32.08;101080.66;5074957;28;20051;-71
2022/04/29 10:23:08;;;;;;;5.10;2.78;;;;;;;19.23;32.13;101070.34;5074854;28;20048;-71
2022/04/29 10:25:41;;;;;;;5.75;3.00;;;;;;;19.16;31.28;101066.44;5091587;28;20044;-71
2022/04/29 10:28:10;;;;;;;4.50;2.80;;;;;;;19.17;31.25;101068.13;5074572;28;20044;-71
2022/04/29 10:30:40;;;;;;;4.78;2.75;;;;;;;19.50;31.15;101064.47;5074756;28;20109;-72
2022/04/29 10:33:10;;;;;;;4.28;2.63;;;;;;;19.52;30.50;101057.06;5074986;28;20089;-71
2022/04/29 10:35:50;;;;;;;6.72;2.90;;;;;;;19.33;30.44;101065.03;5093530;28;20124;-71
2022/04/29 10:38:26;;;;;;;5.00;2.80;;;;;;;19.42;30.19;101066.94;5074601;28;20433;-72
2022/04/29 10:41:13;;;;;;;5.90;2.95;;;;;;;19.34;30.71;101064.88;5075044;28;20048;-70
2022/04/29 10:43:47;;;;;;;6.95;2.97;;;;;;;19.24;30.82;101063.94;5093085;28;20048;-71
2022/04/29 10:46:25;;;;;;;6.72;2.90;;;;;;;19.26;30.88;101059.25;5092825;28;20036;-73
2022/04/29 10:48:54;;;;;;;5.50;2.92;;;;;;;19.27;31.03;101063.69;5074878;28;20044;-71
2022/04/29 10:51:46;;;;;;;6.63;3.08;;;;;;;18.93;31.72;101065.63;5092360;28;20044;-72
2022/04/29 10:54:16;;;;;;;6.20;2.85;;;;;;;18.96;30.70;101064.53;5074983;28;20155;-71
2022/04/29 10:56:44;;;;;;;6.18;2.60;;;;;;;18.75;30.84;101050.94;5092707;28;20400;-72
2022/04/29 10:59:21;;;;;;;6.63;2.85;;;;;;;18.88;30.89;101052.47;5074964;28;20059;-71
2022/04/29 11:01:51;;;;;;;5.20;2.70;;;;;;;18.97;30.29;101056.28;5093111;28;20451;-71
2022/04/29 11:04:47;;;;;;;6.43;3.33;;;;;;;19.20;31.03;101046.25;5074966;28;20056;-71
2022/04/29 11:07:48;;;;;;;6.88;3.28;;;;;;;19.19;32.35;101036.41;5074664;28;20067;-72
2022/04/29 11:10:20;;;;;;;6.35;3.17;;;;;;;19.32;31.83;101036.25;5074504;28;20441;-73
2022/04/29 11:12:57;;;;;;;5.82;3.20;;;;;;;19.48;31.37;101023.13;5092790;28;20110;-72
2022/04/29 11:15:41;;;;;;;4.57;3.00;;;;;;;19.66;30.95;101023.44;5074158;28;20060;-72
2022/04/29 11:18:19;;;;;;;4.55;2.92;;;;;;;19.59;30.88;101027.66;5092361;28;20119;-71
2022/04/29 11:20:49;;;;;;;5.88;3.17;;;;;;;19.47;30.43;101023.25;5074918;28;20131;-71
2022/04/29 11:26:21;;;;;;;6.60;3.08;;;;;;;19.61;30.70;101012.16;5074612;28;20044;-72
2022/04/29 11:28:53;;;;;;;5.18;2.53;;;;;;;19.66;30.12;101020.72;5074751;28;20050;-72
2022/04/29 11:31:21;;;;;;;4.45;2.70;;;;;;;19.76;31.04;101016.22;5092276;28;20048;-72
2022/04/29 11:33:49;;;;;;;5.82;2.63;;;;;;;19.81;28.98;101018.56;5074681;28;20555;-71
2022/04/29 11:36:19;;;;;;;5.30;3.20;;;;;;;19.72;28.71;101010.25;5094763;28;20555;-71
2022/04/29 11:38:50;;;;;;;5.88;3.20;;;;;;;19.77;30.17;101001.72;5096500;28;20157;-72
2022/04/29 11:41:21;;;;;;;4.05;2.60;;;;;;;20.00;31.43;100992.44;5078167;28;20048;-78
2022/04/29 11:43:51;;;;;;;4.53;2.65;;;;;;;20.06;30.67;100992.88;5096453;28;20040;-72
2022/04/29 11:46:20;;;;;;;5.28;3.15;;;;;;;19.88;30.45;100998.06;5077648;28;20075;-74
2022/04/29 11:48:54;;;;;;;5.35;3.03;;;;;;;19.71;30.77;100996.84;5096221;28;20046;-72
2022/04/29 11:51:23;;;;;;;5.28;3.00;;;;;;;19.60;30.68;100994.22;5095942;28;20048;-72
2022/04/29 11:53:59;;;;;;;5.35;2.80;;;;;;;19.26;30.61;100999.75;5077912;28;20044;-71
2022/04/29 11:56:37;;;;;;;6.20;3.25;;;;;;;19.03;30.39;100998.16;5077591;28;20105;-72
2022/04/29 11:59:06;;;;;;;5.60;3.30;;;;;;;19.13;31.96;100990.97;5096019;28;20040;-71
2022/04/29 12:01:35;;;;;;;4.32;2.90;;;;;;;19.28;31.85;100977.97;5095741;28;20130;-72
2022/04/29 12:04:04;;;;;;;5.45;2.92;;;;;;;19.33;31.35;100971.22;5077900;28;20135;-72